Time;durP1;ratioP1;P1;durP2;ratioP2;P2;SDS_P1;SDS_P2;PMS_P1;PMS_P2;Temp;Humidity;BMP_temperature;BMP_pressure;BME280_temperature;BME280_humidity;BME280_pressure;Samples;Min_cycle;Max_cycle;Signal;HPM_P1;HPM_P2
2023/03/27 00:01:49;;;;;;;0.70;0.70;;;;;;;;;;5076588;28;20515;-61
2023/03/27 00:04:17;;;;;;;0.60;0.60;;;;;;;;;;5076876;28;20211;-61
2023/03/27 00:06:47;;;;;;;0.57;0.50;;;;;;;;;;5077303;28;20200;-61
2023/03/27 00:09:15;;;;;;;0.90;0.70;;;;;;;;;;5076966;28;20216;-62
2023/03/27 00:11:43;;;;;;;0.60;0.60;;;;;;;;;;5077107;28;20205;-62
2023/03/27 00:14:11;;;;;;;0.60;0.60;;;;;;;;;;5077293;28;20204;-62
2023/03/27 00:16:38;;;;;;;0.50;0.50;;;;;;;;;;5077004;28;20223;-62
2023/03/27 00:19:06;;;;;;;0.70;0.60;;;;;;;;;;5076760;28;20211;-61
2023/03/27 00:21:34;;;;;;;0.70;0.70;;;;;;;;;;5076846;28;20200;-61
2023/03/27 00:24:02;;;;;;;4.47;0.55;;;;;;;;;;5077131;28;20654;-61
2023/03/27 00:26:30;;;;;;;0.80;0.50;;;;;;;;;;5076872;28;20243;-61
2023/03/27 00:28:58;;;;;;;1.85;0.60;;;;;;;;;;5076594;28;20660;-61
2023/03/27 00:31:25;;;;;;;2.05;0.60;;;;;;;;;;5077264;28;20208;-61
2023/03/27 00:33:53;;;;;;;0.55;0.50;;;;;;;;;;5076594;28;20569;-61
2023/03/27 00:36:20;;;;;;;1.02;0.57;;;;;;;;;;5077143;28;20235;-61
2023/03/27 00:38:48;;;;;;;0.70;0.60;;;;;;;;;;5077140;28;20207;-61
2023/03/27 00:41:16;;;;;;;1.00;0.50;;;;;;;;;;5077055;28;20212;-61
2023/03/27 00:43:44;;;;;;;0.73;0.60;;;;;;;;;;5077038;28;20573;-61
2023/03/27 00:46:36;;;;;;;0.57;0.57;;;;;;;;;;5076781;28;20200;-61
2023/03/27 00:49:05;;;;;;;0.57;0.50;;;;;;;;;;5052493;28;20219;-61
2023/03/27 00:51:32;;;;;;;1.50;0.50;;;;;;;;;;5077290;28;20220;-61
2023/03/27 00:54:00;;;;;;;1.00;0.43;;;;;;;;;;5076684;28;20204;-61
2023/03/27 00:56:32;;;;;;;1.55;0.60;;;;;;;;;;5076130;28;20240;-61
2023/03/27 00:59:01;;;;;;;0.43;0.43;;;;;;;;;;5076218;28;20223;-61
2023/03/27 01:01:29;;;;;;;0.50;0.50;;;;;;;;;;5076766;28;20259;-62
2023/03/27 01:03:59;;;;;;;0.50;0.50;;;;;;;;;;5076683;28;20236;-61
2023/03/27 01:06:26;;;;;;;0.70;0.50;;;;;;;;;;5076182;28;20205;-61
2023/03/27 01:08:54;;;;;;;1.73;0.60;;;;;;;;;;5076493;28;20200;-61
2023/03/27 01:11:32;;;;;;;0.70;0.40;;;;;;;;;;5076812;28;20205;-61
2023/03/27 01:14:09;;;;;;;0.60;0.50;;;;;;;;;;5077729;28;20269;-61
2023/03/27 01:16:41;;;;;;;1.25;0.50;;;;;;;;;;5080325;28;20485;-62
2023/03/27 01:19:35;;;;;;;0.50;0.43;;;;;;;;;;5080193;28;20611;-61
2023/03/27 01:22:14;;;;;;;0.50;0.50;;;;;;;;;;5080024;28;20204;-61
2023/03/27 01:24:52;;;;;;;0.50;0.40;;;;;;;;;;5080096;28;20231;-61
2023/03/27 01:27:20;;;;;;;0.40;0.40;;;;;;;;;;5080053;28;20265;-61
2023/03/27 01:30:00;;;;;;;0.63;0.50;;;;;;;;;;5079930;28;20240;-61
2023/03/27 01:32:41;;;;;;;1.02;0.40;;;;;;;;;;5080039;28;20315;-61
2023/03/27 01:35:23;;;;;;;0.60;0.50;;;;;;;;;;5079620;28;20212;-61
2023/03/27 01:38:01;;;;;;;0.40;0.40;;;;;;;;;;5036379;28;20232;-61
2023/03/27 01:40:33;;;;;;;0.43;0.40;;;;;;;;;;5079567;28;20496;-61
2023/03/27 01:43:02;;;;;;;0.45;0.40;;;;;;;;;;5080052;28;20220;-61
2023/03/27 01:45:31;;;;;;;0.40;0.40;;;;;;;;;;5079811;28;20296;-61
2023/03/27 01:48:00;;;;;;;0.50;0.45;;;;;;;;;;5079803;28;20232;-61
2023/03/27 01:50:31;;;;;;;0.50;0.50;;;;;;;;;;5079250;28;20670;-61
2023/03/27 01:53:01;;;;;;;0.40;0.40;;;;;;;;;;5079524;28;20215;-61
2023/03/27 01:55:32;;;;;;;0.30;0.30;;;;;;;;;;5079063;28;20225;-61
2023/03/27 01:58:03;;;;;;;0.52;0.45;;;;;;;;;;5079041;28;20224;-61
2023/03/27 02:00:31;;;;;;;0.52;0.40;;;;;;;;;;5079344;28;20204;-61
2023/03/27 02:03:01;;;;;;;0.47;0.30;;;;;;;;;;5079077;28;20204;-61
2023/03/27 02:05:32;;;;;;;0.95;0.40;;;;;;;;;;5079324;28;20492;-61
2023/03/27 02:08:04;;;;;;;0.50;0.40;;;;;;;;;;5078862;28;20294;-61
2023/03/27 02:10:33;;;;;;;0.75;0.60;;;;;;;;;;5078815;28;20204;-61
2023/03/27 02:13:05;;;;;;;0.60;0.45;;;;;;;;;;5078688;28;20230;-61
2023/03/27 02:15:34;;;;;;;0.57;0.38;;;;;;;;;;5079125;28;20204;-61
2023/03/27 02:18:04;;;;;;;0.50;0.30;;;;;;;;;;5078743;28;20319;-61
2023/03/27 02:20:32;;;;;;;0.30;0.30;;;;;;;;;;5078945;28;20208;-61
2023/03/27 02:23:00;;;;;;;0.30;0.30;;;;;;;;;;5078708;28;20572;-61
2023/03/27 02:25:30;;;;;;;0.40;0.40;;;;;;;;;;5078159;28;20205;-61
2023/03/27 02:28:18;;;;;;;0.40;0.40;;;;;;;;;;5078660;28;20284;-61
2023/03/27 02:30:50;;;;;;;0.45;0.40;;;;;;;;;;5079216;28;20240;-60
2023/03/27 02:33:23;;;;;;;0.75;0.55;;;;;;;;;;5078671;28;20219;-60
2023/03/27 02:35:58;;;;;;;0.35;0.35;;;;;;;;;;5078116;28;20266;-61
2023/03/27 02:38:31;;;;;;;0.30;0.30;;;;;;;;;;5078452;28;20231;-61
2023/03/27 02:41:05;;;;;;;0.40;0.40;;;;;;;;;;5078032;28;20303;-61
2023/03/27 02:43:36;;;;;;;0.55;0.47;;;;;;;;;;5078450;28;20236;-61
2023/03/27 02:46:06;;;;;;;0.52;0.30;;;;;;;;;;5078161;28;20205;-61
2023/03/27 02:48:35;;;;;;;0.30;0.30;;;;;;;;;;5077864;28;20210;-61
2023/03/27 02:51:05;;;;;;;0.40;0.40;;;;;;;;;;5077886;28;20211;-61
2023/03/27 02:53:35;;;;;;;0.55;0.40;;;;;;;;;;5078631;28;20213;-61
2023/03/27 02:56:04;;;;;;;0.52;0.47;;;;;;;;;;5077590;28;20239;-61
2023/03/27 02:58:36;;;;;;;0.30;0.30;;;;;;;;;;5077721;28;20235;-61
2023/03/27 03:01:08;;;;;;;0.40;0.40;;;;;;;;;;5078361;28;20212;-61
2023/03/27 03:03:37;;;;;;;0.50;0.50;;;;;;;;;;5078140;28;20216;-61
2023/03/27 03:06:06;;;;;;;0.55;0.30;;;;;;;;;;5077646;28;20215;-61
2023/03/27 03:08:37;;;;;;;0.30;0.30;;;;;;;;;;5078012;28;20200;-61
2023/03/27 03:11:04;;;;;;;0.30;0.30;;;;;;;;;;5077771;28;20208;-61
2023/03/27 03:13:34;;;;;;;0.45;0.40;;;;;;;;;;5077235;28;20303;-61
2023/03/27 03:16:01;;;;;;;0.55;0.35;;;;;;;;;;5077787;28;20235;-61
2023/03/27 03:18:29;;;;;;;0.32;0.32;;;;;;;;;;5077797;28;20220;-61
2023/03/27 03:20:56;;;;;;;0.28;0.28;;;;;;;;;;5077392;28;20295;-61
2023/03/27 03:23:24;;;;;;;0.50;0.43;;;;;;;;;;5077782;28;20212;-61
2023/03/27 03:25:55;;;;;;;0.20;0.20;;;;;;;;;;5077305;28;20247;-61
2023/03/27 03:28:24;;;;;;;0.47;0.47;;;;;;;;;;5077115;28;20240;-61
2023/03/27 03:30:53;;;;;;;0.43;0.40;;;;;;;;;;5077185;28;20243;-61
2023/03/27 03:33:21;;;;;;;0.45;0.40;;;;;;;;;;5077347;28;20203;-61
2023/03/27 03:35:49;;;;;;;0.60;0.30;;;;;;;;;;5077302;28;20204;-61
2023/03/27 03:38:23;;;;;;;0.50;0.35;;;;;;;;;;5077074;28;20311;-61
2023/03/27 03:40:52;;;;;;;0.57;0.40;;;;;;;;;;5076927;28;20203;-61
2023/03/27 03:43:20;;;;;;;0.50;0.40;;;;;;;;;;5076954;28;20223;-61
2023/03/27 03:45:48;;;;;;;0.52;0.40;;;;;;;;;;5077014;28;20277;-61
2023/03/27 03:48:17;;;;;;;0.40;0.40;;;;;;;;;;5077405;28;20558;-61
2023/03/27 03:50:44;;;;;;;0.60;0.50;;;;;;;;;;5076785;28;20462;-61
2023/03/27 03:53:12;;;;;;;0.32;0.32;;;;;;;;;;5077112;28;20606;-61
2023/03/27 03:55:39;;;;;;;0.45;0.45;;;;;;;;;;5076579;28;20238;-61
2023/03/27 03:58:07;;;;;;;0.30;0.30;;;;;;;;;;5076210;28;20224;-62
2023/03/27 04:00:37;;;;;;;0.40;0.40;;;;;;;;;;5076747;28;20281;-61
2023/03/27 04:03:06;;;;;;;0.30;0.30;;;;;;;;;;5076755;28;20215;-61
2023/03/27 04:05:35;;;;;;;0.30;0.30;;;;;;;;;;5077619;28;20533;-61
2023/03/27 04:08:05;;;;;;;0.47;0.47;;;;;;;;;;5077169;28;20200;-61
2023/03/27 04:10:33;;;;;;;0.57;0.40;;;;;;;;;;5077159;28;20446;-61
2023/03/27 04:13:00;;;;;;;0.40;0.40;;;;;;;;;;5076756;28;20572;-61
2023/03/27 04:15:28;;;;;;;0.40;0.40;;;;;;;;;;5077258;28;20212;-61
2023/03/27 04:17:56;;;;;;;0.40;0.32;;;;;;;;;;5076867;28;20224;-61
2023/03/27 04:20:25;;;;;;;0.45;0.45;;;;;;;;;;5076178;28;20215;-61
2023/03/27 04:22:54;;;;;;;0.65;0.50;;;;;;;;;;5076257;28;20270;-61
2023/03/27 04:25:22;;;;;;;0.45;0.45;;;;;;;;;;5076451;28;20333;-61
2023/03/27 04:27:51;;;;;;;0.40;0.40;;;;;;;;;;5075248;28;20249;-61
2023/03/27 04:30:21;;;;;;;0.30;0.30;;;;;;;;;;5075446;28;20310;-61
2023/03/27 04:32:49;;;;;;;0.50;0.40;;;;;;;;;;5075138;28;20206;-61
2023/03/27 04:35:16;;;;;;;0.40;0.40;;;;;;;;;;5075490;28;20287;-61
2023/03/27 04:37:44;;;;;;;0.40;0.40;;;;;;;;;;5075399;28;20281;-61
2023/03/27 04:40:13;;;;;;;0.45;0.45;;;;;;;;;;5075280;28;20217;-61
2023/03/27 04:42:42;;;;;;;0.50;0.40;;;;;;;;;;5075500;28;20287;-61
2023/03/27 04:45:11;;;;;;;0.57;0.50;;;;;;;;;;5074716;28;20558;-61
2023/03/27 04:47:38;;;;;;;0.30;0.30;;;;;;;;;;5075719;28;20295;-61
2023/03/27 04:50:07;;;;;;;0.47;0.40;;;;;;;;;;5078563;28;20196;-61
2023/03/27 04:52:34;;;;;;;0.30;0.30;;;;;;;;;;5078761;28;20285;-61
2023/03/27 04:55:02;;;;;;;0.50;0.50;;;;;;;;;;5078860;28;20266;-61
2023/03/27 04:57:30;;;;;;;0.43;0.43;;;;;;;;;;5078530;28;20232;-61
2023/03/27 04:59:58;;;;;;;0.50;0.50;;;;;;;;;;5078294;28;20204;-61
2023/03/27 05:02:26;;;;;;;0.80;0.50;;;;;;;;;;5077462;28;20299;-61
2023/03/27 05:04:57;;;;;;;0.55;0.40;;;;;;;;;;5077196;28;20212;-61
2023/03/27 05:07:25;;;;;;;0.52;0.45;;;;;;;;;;5078626;28;20510;-61
2023/03/27 05:09:53;;;;;;;0.40;0.40;;;;;;;;;;5078081;28;20295;-61
2023/03/27 05:12:20;;;;;;;0.50;0.50;;;;;;;;;;5077804;28;20200;-61
2023/03/27 05:14:49;;;;;;;0.82;0.52;;;;;;;;;;5077111;28;20277;-61
2023/03/27 05:17:17;;;;;;;0.43;0.40;;;;;;;;;;5077749;28;20216;-61
2023/03/27 05:19:44;;;;;;;0.57;0.57;;;;;;;;;;5077819;28;20817;-61
2023/03/27 05:22:12;;;;;;;0.35;0.35;;;;;;;;;;5076821;28;20312;-61
2023/03/27 05:24:39;;;;;;;0.50;0.40;;;;;;;;;;5078217;28;20216;-61
2023/03/27 05:27:07;;;;;;;0.40;0.40;;;;;;;;;;5076746;28;20196;-61
2023/03/27 05:29:34;;;;;;;0.73;0.50;;;;;;;;;;5077433;28;20467;-61
2023/03/27 05:32:03;;;;;;;0.30;0.30;;;;;;;;;;5077213;28;20200;-61
2023/03/27 05:34:33;;;;;;;1.30;0.50;;;;;;;;;;5077432;28;20266;-61
2023/03/27 05:37:04;;;;;;;0.50;0.50;;;;;;;;;;5077010;28;20208;-61
2023/03/27 05:39:31;;;;;;;0.77;0.50;;;;;;;;;;5076561;28;20200;-61
2023/03/27 05:41:59;;;;;;;0.60;0.55;;;;;;;;;;5076432;28;20277;-61
2023/03/27 05:44:26;;;;;;;0.43;0.43;;;;;;;;;;5074827;28;20216;-61
2023/03/27 05:46:53;;;;;;;1.15;0.57;;;;;;;;;;5076928;28;20212;-61
2023/03/27 05:49:22;;;;;;;0.50;0.50;;;;;;;;;;5076675;28;20197;-61
2023/03/27 05:51:49;;;;;;;0.50;0.50;;;;;;;;;;5076922;28;20208;-61
2023/03/27 05:54:17;;;;;;;0.50;0.50;;;;;;;;;;5075928;28;20213;-61
2023/03/27 05:56:44;;;;;;;0.57;0.50;;;;;;;;;;5076460;28;20228;-61
2023/03/27 05:59:12;;;;;;;1.27;0.70;;;;;;;;;;5076334;28;20492;-61
2023/03/27 06:01:39;;;;;;;0.98;0.60;;;;;;;;;;5075313;28;20376;-61
2023/03/27 06:04:07;;;;;;;0.95;0.60;;;;;;;;;;5076555;28;20778;-61
2023/03/27 06:06:36;;;;;;;1.70;0.70;;;;;;;;;;5076773;28;20751;-61
2023/03/27 06:09:04;;;;;;;0.35;0.35;;;;;;;;;;5077196;28;20494;-61
2023/03/27 06:11:31;;;;;;;2.25;0.57;;;;;;;;;;5076586;28;20544;-61
2023/03/27 06:13:59;;;;;;;1.67;0.80;;;;;;;;;;5076780;28;20200;-61
2023/03/27 06:16:26;;;;;;;1.45;0.57;;;;;;;;;;5076805;28;20208;-61
2023/03/27 06:18:54;;;;;;;1.58;0.70;;;;;;;;;;5076247;28;20563;-61
2023/03/27 06:21:24;;;;;;;0.63;0.63;;;;;;;;;;5089355;28;20725;-61
2023/03/27 06:23:55;;;;;;;0.88;0.50;;;;;;;;;;5069403;28;20253;-61
2023/03/27 06:26:22;;;;;;;0.73;0.60;;;;;;;;;;5080575;28;20191;-61
2023/03/27 06:28:49;;;;;;;0.85;0.68;;;;;;;;;;5095655;28;20207;-61
2023/03/27 06:31:18;;;;;;;2.08;0.80;;;;;;;;;;5095714;28;20556;-61
2023/03/27 06:33:46;;;;;;;0.95;0.70;;;;;;;;;;5096353;28;20204;-61
2023/03/27 06:36:13;;;;;;;0.70;0.63;;;;;;;;;;5095812;28;20290;-61
2023/03/27 06:38:41;;;;;;;0.70;0.70;;;;;;;;;;5096042;28;20223;-61
2023/03/27 06:41:10;;;;;;;0.90;0.60;;;;;;;;;;5096329;28;20213;-61
2023/03/27 06:43:38;;;;;;;2.05;0.65;;;;;;;;;;5096143;28;20298;-61
2023/03/27 06:46:06;;;;;;;1.10;0.65;;;;;;;;;;5096107;28;20203;-61
2023/03/27 06:48:33;;;;;;;0.77;0.60;;;;;;;;;;5095860;28;20290;-61
2023/03/27 06:51:01;;;;;;;1.00;0.68;;;;;;;;;;5095869;28;20587;-61
2023/03/27 06:53:29;;;;;;;0.60;0.60;;;;;;;;;;5096699;28;20203;-62
2023/03/27 06:55:57;;;;;;;1.20;0.60;;;;;;;;;;5096137;28;20663;-61
2023/03/27 06:58:26;;;;;;;1.02;0.60;;;;;;;;;;5096143;28;20223;-61
2023/03/27 07:00:54;;;;;;;0.70;0.60;;;;;;;;;;5096012;28;20264;-61
2023/03/27 07:03:22;;;;;;;0.80;0.60;;;;;;;;;;5096201;28;20261;-61
2023/03/27 07:05:50;;;;;;;1.38;0.70;;;;;;;;;;5095993;28;20218;-61
2023/03/27 07:08:18;;;;;;;0.90;0.60;;;;;;;;;;5095727;28;20576;-61
2023/03/27 07:10:46;;;;;;;0.85;0.50;;;;;;;;;;5094229;28;20278;-61
2023/03/27 07:13:14;;;;;;;0.60;0.57;;;;;;;;;;5096187;28;20207;-61
2023/03/27 07:15:43;;;;;;;0.68;0.68;;;;;;;;;;5097191;28;20237;-61
2023/03/27 07:18:10;;;;;;;1.10;0.60;;;;;;;;;;5095946;28;20238;-61
2023/03/27 07:20:38;;;;;;;1.70;0.70;;;;;;;;;;5096785;28;20588;-61
2023/03/27 07:23:06;;;;;;;1.88;0.60;;;;;;;;;;5096044;28;20579;-61
2023/03/27 07:25:36;;;;;;;1.25;0.80;;;;;;;;;;5095612;28;20234;-61
2023/03/27 07:28:05;;;;;;;0.60;0.60;;;;;;;;;;5096052;28;20701;-61
2023/03/27 07:30:32;;;;;;;0.90;0.80;;;;;;;;;;5094747;28;20211;-61
2023/03/27 07:33:01;;;;;;;1.23;0.60;;;;;;;;;;5096035;28;20212;-61
2023/03/27 07:35:28;;;;;;;0.98;0.60;;;;;;;;;;5096130;28;20264;-61
2023/03/27 07:37:56;;;;;;;1.50;0.60;;;;;;;;;;5094940;28;20598;-61
2023/03/27 07:40:25;;;;;;;0.50;0.50;;;;;;;;;;5095033;28;20286;-61
2023/03/27 07:42:52;;;;;;;0.70;0.60;;;;;;;;;;5095003;28;20571;-61
2023/03/27 07:45:20;;;;;;;0.93;0.60;;;;;;;;;;5095218;28;20265;-62
2023/03/27 07:47:48;;;;;;;1.65;0.80;;;;;;;;;;5094839;28;20203;-61
2023/03/27 07:50:17;;;;;;;0.73;0.60;;;;;;;;;;5095415;28;20207;-61
2023/03/27 07:52:45;;;;;;;0.82;0.65;;;;;;;;;;5095807;28;20204;-61
2023/03/27 07:55:14;;;;;;;0.70;0.70;;;;;;;;;;5097571;28;20211;-61
2023/03/27 07:57:44;;;;;;;0.93;0.68;;;;;;;;;;5115178;28;20209;-62
2023/03/27 08:00:14;;;;;;;0.75;0.60;;;;;;;;;;5114742;28;20234;-61
2023/03/27 08:02:41;;;;;;;0.73;0.68;;;;;;;;;;5114888;28;20202;-61
2023/03/27 08:05:10;;;;;;;0.65;0.65;;;;;;;;;;5115954;28;20203;-61
2023/03/27 08:07:39;;;;;;;0.73;0.60;;;;;;;;;;5115235;28;20209;-61
2023/03/27 08:10:08;;;;;;;1.02;0.60;;;;;;;;;;5115852;28;20202;-61
2023/03/27 08:12:35;;;;;;;1.20;0.80;;;;;;;;;;5114540;28;20203;-61
2023/03/27 08:15:04;;;;;;;1.02;0.77;;;;;;;;;;5115294;28;20245;-61
2023/03/27 08:17:32;;;;;;;0.50;0.50;;;;;;;;;;5115165;28;20203;-61
2023/03/27 08:20:00;;;;;;;0.52;0.50;;;;;;;;;;5115243;28;20239;-61
2023/03/27 08:22:28;;;;;;;0.50;0.50;;;;;;;;;;5114886;28;20639;-61
2023/03/27 08:24:57;;;;;;;0.60;0.60;;;;;;;;;;5118220;28;20554;-61
2023/03/27 08:27:24;;;;;;;0.60;0.60;;;;;;;;;;5120031;28;20561;-61
2023/03/27 08:29:52;;;;;;;0.68;0.52;;;;;;;;;;5102352;28;20199;-61
2023/03/27 08:32:19;;;;;;;0.80;0.70;;;;;;;;;;5097643;28;20233;-61
2023/03/27 08:34:47;;;;;;;0.75;0.75;;;;;;;;;;5098595;28;20211;-61
2023/03/27 08:37:14;;;;;;;0.75;0.60;;;;;;;;;;5098932;28;20215;-61
2023/03/27 08:39:41;;;;;;;0.70;0.63;;;;;;;;;;5098822;28;20288;-61
2023/03/27 08:42:16;;;;;;;0.65;0.60;;;;;;;;;;5097939;28;20236;-61
2023/03/27 08:44:44;;;;;;;0.70;0.60;;;;;;;;;;5098196;28;20226;-61
2023/03/27 08:47:14;;;;;;;0.73;0.60;;;;;;;;;;5098094;28;20590;-61
2023/03/27 08:49:43;;;;;;;0.55;0.55;;;;;;;;;;5098973;28;20207;-61
2023/03/27 08:52:14;;;;;;;0.70;0.60;;;;;;;;;;5098271;28;20606;-61
2023/03/27 08:54:43;;;;;;;1.17;0.60;;;;;;;;;;5098321;28;20203;-61
2023/03/27 08:57:17;;;;;;;0.70;0.60;;;;;;;;;;5097665;28;20236;-61
2023/03/27 08:59:45;;;;;;;0.55;0.40;;;;;;;;;;5098094;28;20313;-61
2023/03/27 09:02:17;;;;;;;0.60;0.45;;;;;;;;;;5097876;28;20214;-61
2023/03/27 09:04:47;;;;;;;0.40;0.40;;;;;;;;;;5097030;28;20215;-61
2023/03/27 09:07:18;;;;;;;0.60;0.60;;;;;;;;;;5097587;28;20269;-61
2023/03/27 09:09:51;;;;;;;0.98;0.50;;;;;;;;;;5098604;28;20249;-61
2023/03/27 09:12:35;;;;;;;0.50;0.50;;;;;;;;;;5097499;28;20290;-61
2023/03/27 09:15:06;;;;;;;1.35;0.60;;;;;;;;;;5097172;28;20640;-61
2023/03/27 09:17:35;;;;;;;0.50;0.50;;;;;;;;;;5097829;28;20204;-61
2023/03/27 09:20:06;;;;;;;0.70;0.55;;;;;;;;;;5108432;28;20802;-61
2023/03/27 09:22:39;;;;;;;0.70;0.70;;;;;;;;;;5118413;28;20714;-61
2023/03/27 09:25:16;;;;;;;0.57;0.47;;;;;;;;;;5118291;28;20282;-62
2023/03/27 09:27:46;;;;;;;0.88;0.60;;;;;;;;;;5118222;28;20198;-62
2023/03/27 09:30:19;;;;;;;0.80;0.57;;;;;;;;;;5118366;28;20199;-61
2023/03/27 09:32:47;;;;;;;0.90;0.70;;;;;;;;;;5116649;28;20485;-61
2023/03/27 09:35:15;;;;;;;0.77;0.50;;;;;;;;;;5117217;28;20210;-61
2023/03/27 09:37:42;;;;;;;0.50;0.50;;;;;;;;;;5118545;28;20226;-61
2023/03/27 09:40:17;;;;;;;0.55;0.50;;;;;;;;;;5118200;28;20633;-61
2023/03/27 09:42:46;;;;;;;0.55;0.55;;;;;;;;;;5118014;28;20241;-61
2023/03/27 09:45:14;;;;;;;0.63;0.60;;;;;;;;;;5117219;28;20709;-61
2023/03/27 09:47:48;;;;;;;0.95;0.60;;;;;;;;;;5116527;28;20261;-61
2023/03/27 09:50:24;;;;;;;1.52;0.60;;;;;;;;;;5117520;28;20199;-61
2023/03/27 09:52:54;;;;;;;0.60;0.45;;;;;;;;;;5116677;28;20203;-61
2023/03/27 09:55:25;;;;;;;0.50;0.50;;;;;;;;;;5116749;28;20235;-61
2023/03/27 09:57:57;;;;;;;0.60;0.60;;;;;;;;;;5117622;28;20213;-61
2023/03/27 10:00:30;;;;;;;0.70;0.60;;;;;;;;;;5117139;28;20346;-61
2023/03/27 10:03:02;;;;;;;0.65;0.50;;;;;;;;;;5117186;28;20659;-61
2023/03/27 10:05:30;;;;;;;0.30;0.30;;;;;;;;;;5116850;28;20210;-61
2023/03/27 10:07:58;;;;;;;0.40;0.40;;;;;;;;;;5116928;28;20234;-61
2023/03/27 10:10:30;;;;;;;0.50;0.47;;;;;;;;;;5116831;28;20290;-61
2023/03/27 10:13:00;;;;;;;0.77;0.47;;;;;;;;;;5115809;28;20302;-61
2023/03/27 10:15:31;;;;;;;0.50;0.50;;;;;;;;;;5117322;28;20203;-61
2023/03/27 10:17:59;;;;;;;0.90;0.50;;;;;;;;;;5117169;28;20203;-61
2023/03/27 10:20:27;;;;;;;1.60;0.50;;;;;;;;;;5116672;28;20279;-60
2023/03/27 10:22:55;;;;;;;0.68;0.55;;;;;;;;;;5116741;28;20199;-61
2023/03/27 10:25:27;;;;;;;0.73;0.57;;;;;;;;;;5116056;28;20210;-61
2023/03/27 10:27:55;;;;;;;2.85;0.60;;;;;;;;;;5116872;28;20320;-61
2023/03/27 10:30:31;;;;;;;3.50;0.70;;;;;;;;;;5116306;28;20372;-61
2023/03/27 10:32:59;;;;;;;2.67;0.75;;;;;;;;;;5116117;28;20596;-61
2023/03/27 10:35:28;;;;;;;1.17;0.70;;;;;;;;;;5115067;28;20207;-61
2023/03/27 10:37:56;;;;;;;2.55;0.88;;;;;;;;;;5115393;28;20283;-62
2023/03/27 10:40:26;;;;;;;1.77;0.70;;;;;;;;;;5116161;28;20215;-61
2023/03/27 10:42:56;;;;;;;2.92;0.70;;;;;;;;;;5116162;28;20252;-61
2023/03/27 10:45:24;;;;;;;2.13;0.60;;;;;;;;;;5114788;28;20210;-61
2023/03/27 10:47:54;;;;;;;2.70;0.70;;;;;;;;;;5114993;28;20289;-61
2023/03/27 10:50:21;;;;;;;1.00;0.50;;;;;;;;;;5115884;28;20489;-61
2023/03/27 10:52:53;;;;;;;1.92;0.60;;;;;;;;;;5116088;28;20267;-61
2023/03/27 10:55:25;;;;;;;2.08;0.60;;;;;;;;;;5116218;28;20276;-61
2023/03/27 10:57:54;;;;;;;2.08;0.65;;;;;;;;;;5116165;28;20503;-61
2023/03/27 11:00:23;;;;;;;1.05;0.57;;;;;;;;;;5116563;28;20591;-61
2023/03/27 11:02:53;;;;;;;0.90;0.70;;;;;;;;;;5116083;28;20617;-61
2023/03/27 11:05:24;;;;;;;1.77;0.68;;;;;;;;;;5116970;28;20448;-61
2023/03/27 11:07:54;;;;;;;3.00;0.90;;;;;;;;;;5116008;28;20233;-61
2023/03/27 11:10:22;;;;;;;1.45;0.60;;;;;;;;;;5115608;28;20199;-61
2023/03/27 11:12:54;;;;;;;1.35;0.50;;;;;;;;;;5116271;28;20206;-61
2023/03/27 11:15:24;;;;;;;1.77;0.80;;;;;;;;;;5115713;28;20211;-61
2023/03/27 11:17:55;;;;;;;1.00;0.52;;;;;;;;;;5115632;28;20203;-61
2023/03/27 11:20:26;;;;;;;1.20;0.60;;;;;;;;;;5115363;28;20318;-61
2023/03/27 11:22:57;;;;;;;0.82;0.68;;;;;;;;;;5115797;28;20613;-61
2023/03/27 11:25:28;;;;;;;3.25;0.65;;;;;;;;;;5115567;28;20211;-61
2023/03/27 11:27:58;;;;;;;2.20;0.90;;;;;;;;;;5115643;28;20210;-61
2023/03/27 11:30:34;;;;;;;1.25;0.63;;;;;;;;;;5115684;28;20203;-62
2023/03/27 11:33:23;;;;;;;1.25;0.77;;;;;;;;;;5115678;28;20202;-61
2023/03/27 11:35:55;;;;;;;1.23;0.70;;;;;;;;;;5114912;28;20218;-61
2023/03/27 11:38:26;;;;;;;0.60;0.50;;;;;;;;;;5115154;28;20706;-61
2023/03/27 11:40:55;;;;;;;0.77;0.65;;;;;;;;;;5114696;28;20291;-61
2023/03/27 11:43:23;;;;;;;1.92;0.80;;;;;;;;;;5114896;28;20287;-61
2023/03/27 11:45:54;;;;;;;1.13;0.70;;;;;;;;;;5114041;28;20209;-61
2023/03/27 11:48:45;;;;;;;1.13;0.60;;;;;;;;;;5114869;28;20469;-61
2023/03/27 11:51:20;;;;;;;2.28;0.85;;;;;;;;;;5114008;28;20673;-61
2023/03/27 11:53:56;;;;;;;0.98;0.60;;;;;;;;;;5113588;28;20263;-61
2023/03/27 11:56:31;;;;;;;0.77;0.50;;;;;;;;;;5113979;28;20265;-61
2023/03/27 11:59:05;;;;;;;1.15;0.70;;;;;;;;;;5114224;28;20645;-61
2023/03/27 12:01:36;;;;;;;2.13;0.60;;;;;;;;;;5114282;28;20198;-61
2023/03/27 12:04:18;;;;;;;1.35;0.73;;;;;;;;;;5113837;28;20199;-61
2023/03/27 12:06:50;;;;;;;1.67;0.70;;;;;;;;;;5114233;28;20199;-61
2023/03/27 12:09:26;;;;;;;0.60;0.60;;;;;;;;;;5114456;28;20289;-61
2023/03/27 12:11:59;;;;;;;1.02;0.60;;;;;;;;;;5114524;28;20285;-61
2023/03/27 12:14:45;;;;;;;1.35;0.70;;;;;;;;;;5114519;28;20211;-61
2023/03/27 12:17:28;;;;;;;1.35;0.63;;;;;;;;;;5113993;28;20210;-61
2023/03/27 12:20:14;;;;;;;1.60;0.60;;;;;;;;;;5114011;28;20515;-61
2023/03/27 12:22:45;;;;;;;1.55;0.55;;;;;;;;;;5101912;28;20249;-61
2023/03/27 12:25:23;;;;;;;1.52;0.73;;;;;;;;;;5114173;28;20545;-61
2023/03/27 12:27:56;;;;;;;1.63;0.60;;;;;;;;;;5113335;28;20271;-61
2023/03/27 12:30:31;;;;;;;0.68;0.60;;;;;;;;;;5114603;28;20598;-61
2023/03/27 12:33:13;;;;;;;0.60;0.60;;;;;;;;;;5113248;28;20716;-61
2023/03/27 12:35:42;;;;;;;0.60;0.60;;;;;;;;;;5096747;28;20210;-61
2023/03/27 12:38:15;;;;;;;0.73;0.50;;;;;;;;;;5113364;28;20199;-61
2023/03/27 12:40:48;;;;;;;0.98;0.50;;;;;;;;;;5113689;28;20227;-61
2023/03/27 12:43:26;;;;;;;1.10;0.55;;;;;;;;;;5113673;28;20202;-61
2023/03/27 12:46:11;;;;;;;1.08;0.52;;;;;;;;;;5113745;28;20302;-61
2023/03/27 12:48:46;;;;;;;1.17;0.60;;;;;;;;;;5113466;28;20238;-61
2023/03/27 12:51:16;;;;;;;0.63;0.60;;;;;;;;;;5114375;28;20331;-61
2023/03/27 12:53:49;;;;;;;1.02;0.80;;;;;;;;;;5113779;28;20238;-61
2023/03/27 12:56:26;;;;;;;0.75;0.73;;;;;;;;;;5113530;28;20501;-61
2023/03/27 12:58:54;;;;;;;0.60;0.60;;;;;;;;;;5113569;28;20297;-61
2023/03/27 13:01:27;;;;;;;0.65;0.65;;;;;;;;;;5113615;28;20219;-61
2023/03/27 13:04:09;;;;;;;1.38;0.70;;;;;;;;;;5114275;28;20305;-61
2023/03/27 13:06:42;;;;;;;0.70;0.63;;;;;;;;;;5113704;28;20203;-61
2023/03/27 13:09:17;;;;;;;0.68;0.68;;;;;;;;;;5112905;28;20207;-61
2023/03/27 13:11:50;;;;;;;0.77;0.70;;;;;;;;;;5117354;28;20199;-61
2023/03/27 13:14:37;;;;;;;0.77;0.60;;;;;;;;;;5116377;28;20210;-61
2023/03/27 13:17:27;;;;;;;0.60;0.60;;;;;;;;;;5117682;28;20567;-61
2023/03/27 13:19:59;;;;;;;1.17;0.63;;;;;;;;;;5117202;28;20546;-61
2023/03/27 13:22:34;;;;;;;0.88;0.50;;;;;;;;;;5117558;28;20283;-61
2023/03/27 13:25:11;;;;;;;0.98;0.63;;;;;;;;;;5117199;28;20205;-61
2023/03/27 13:27:45;;;;;;;0.50;0.50;;;;;;;;;;5117189;28;20422;-61
2023/03/27 13:30:27;;;;;;;0.80;0.70;;;;;;;;;;5117394;28;20262;-61
2023/03/27 13:33:09;;;;;;;1.02;0.50;;;;;;;;;;5117081;28;20207;-61
2023/03/27 13:35:40;;;;;;;0.52;0.52;;;;;;;;;;5117399;28;20229;-61
2023/03/27 13:38:10;;;;;;;0.93;0.70;;;;;;;;;;5117394;28;20242;-61
2023/03/27 13:40:43;;;;;;;0.98;0.40;;;;;;;;;;5117110;28;20223;-61
2023/03/27 13:43:15;;;;;;;1.30;0.70;;;;;;;;;;5117603;28;20199;-61
2023/03/27 13:45:45;;;;;;;0.88;0.68;;;;;;;;;;5116802;28;20617;-61
2023/03/27 13:48:31;;;;;;;1.23;0.50;;;;;;;;;;5116698;28;20560;-61
2023/03/27 13:51:16;;;;;;;1.15;0.60;;;;;;;;;;5116206;28;20199;-61
2023/03/27 13:53:51;;;;;;;0.73;0.52;;;;;;;;;;5103456;28;20207;-61
2023/03/27 13:56:39;;;;;;;0.60;0.50;;;;;;;;;;5116868;28;20540;-61
2023/03/27 13:59:37;;;;;;;0.77;0.57;;;;;;;;;;5111167;28;20335;-61
2023/03/27 14:02:24;;;;;;;0.65;0.60;;;;;;;;;;5033943;28;20736;-61
2023/03/27 14:05:09;;;;;;;0.88;0.60;;;;;;;;;;5108342;28;20242;-61
2023/03/27 14:07:52;;;;;;;0.65;0.60;;;;;;;;;;5116641;28;20203;-61
2023/03/27 14:10:25;;;;;;;0.90;0.52;;;;;;;;;;5116823;28;20206;-61
2023/03/27 14:13:01;;;;;;;0.70;0.60;;;;;;;;;;5116133;28;20222;-61
2023/03/27 14:15:39;;;;;;;0.60;0.50;;;;;;;;;;5116680;28;20210;-61
2023/03/27 14:18:27;;;;;;;0.75;0.43;;;;;;;;;;5116439;28;20210;-61
2023/03/27 14:20:56;;;;;;;1.42;0.70;;;;;;;;;;5081864;28;20223;-61
2023/03/27 14:23:27;;;;;;;1.20;0.60;;;;;;;;;;5116070;28;20646;-61
2023/03/27 14:25:59;;;;;;;0.75;0.50;;;;;;;;;;5116414;28;20221;-61
2023/03/27 14:28:30;;;;;;;0.77;0.63;;;;;;;;;;5116947;28;20214;-61
2023/03/27 14:31:00;;;;;;;0.57;0.50;;;;;;;;;;5116400;28;20279;-61
2023/03/27 14:33:27;;;;;;;0.60;0.60;;;;;;;;;;5115832;28;20242;-61
2023/03/27 14:35:56;;;;;;;0.75;0.50;;;;;;;;;;5116052;28;20202;-61
2023/03/27 14:38:25;;;;;;;0.95;0.70;;;;;;;;;;5116362;28;20264;-61
2023/03/27 14:40:55;;;;;;;0.50;0.35;;;;;;;;;;5116604;28;20235;-61
2023/03/27 14:43:23;;;;;;;0.80;0.60;;;;;;;;;;5116453;28;20195;-61
2023/03/27 14:45:52;;;;;;;0.60;0.50;;;;;;;;;;5115959;28;20199;-61
2023/03/27 14:48:22;;;;;;;1.13;0.80;;;;;;;;;;5116086;28;20301;-61
2023/03/27 14:50:52;;;;;;;0.60;0.60;;;;;;;;;;5116673;28;20238;-61
2023/03/27 14:53:24;;;;;;;0.82;0.60;;;;;;;;;;5115861;28;20221;-61
2023/03/27 14:55:53;;;;;;;0.80;0.80;;;;;;;;;;5114915;28;20274;-61
2023/03/27 14:58:22;;;;;;;0.50;0.50;;;;;;;;;;5115645;28;20230;-61
2023/03/27 15:00:52;;;;;;;0.90;0.60;;;;;;;;;;5115901;28;20234;-61
2023/03/27 15:03:22;;;;;;;0.70;0.52;;;;;;;;;;5116511;28;20299;-61
2023/03/27 15:06:01;;;;;;;1.35;0.70;;;;;;;;;;5116379;28;20207;-61